LIRN/NAP METAR and TAF weather

Enter ICAO airport designator
Station Type Date Time Source
LIRN METAR 2020/02/27 13:50 UTC NOAA

LIRN 271350Z 28011KT CAVOK 14/M06 Q1014 NOSIG


Station Type Date Time Source
LIRN Decoded METAR 2020/02/27 13:50 UTC NOAA

Napoli / Capodichino, Italy (LIRN) 40-51N 014-18E 72M
Feb 27, 2020 - 08:50 AM EST / 2020.02.27 1350 UTC
Wind: from the W (280 degrees) at 13 MPH (11 KT):0
Visibility: greater than 7 mile(s):0
Temperature: 57 F (14 C)
Dew Point: 21 F (-6 C)
Relative Humidity: 24%
Pressure (altimeter): 29.94 in. Hg (1014 hPa)
ob: LIRN 271350Z 28011KT CAVOK 14/M06 Q1014 NOSIG
cycle: 14

Station Type Date Time Source
LIRN TAF 2020/02/27 12:21 UTC NOAA

TAF LIRN 271100Z 2712/2812 28014KT 9999 SCT025
TEMPO 2718/2806 SHRA
TEMPO 2721/2806 28018G28KT

Example: see airport list